sensor_id;sensor_type;location;lat;lon;timestamp;temperature;humidity
38514;DHT22;24282;48.400;10.808;2024-01-30T00:01:58;0.20;84.00
38514;DHT22;24282;48.400;10.808;2024-01-30T00:04:24;0.20;83.90
38514;DHT22;24282;48.400;10.808;2024-01-30T00:06:51;0.20;83.80
38514;DHT22;24282;48.400;10.808;2024-01-30T00:09:18;0.20;83.80
38514;DHT22;24282;48.400;10.808;2024-01-30T00:11:45;0.20;83.70
38514;DHT22;24282;48.400;10.808;2024-01-30T00:14:11;0.20;83.60
38514;DHT22;24282;48.400;10.808;2024-01-30T00:16:36;0.20;83.50
38514;DHT22;24282;48.400;10.808;2024-01-30T00:19:02;0.10;83.50
38514;DHT22;24282;48.400;10.808;2024-01-30T00:21:29;0.10;83.50
38514;DHT22;24282;48.400;10.808;2024-01-30T00:23:54;0.10;83.40
38514;DHT22;24282;48.400;10.808;2024-01-30T00:26:20;0.10;83.20
38514;DHT22;24282;48.400;10.808;2024-01-30T00:28:46;0.10;83.00
38514;DHT22;24282;48.400;10.808;2024-01-30T00:31:12;0.10;82.80
38514;DHT22;24282;48.400;10.808;2024-01-30T00:33:38;0.10;82.60
38514;DHT22;24282;48.400;10.808;2024-01-30T00:36:05;0.10;82.50
38514;DHT22;24282;48.400;10.808;2024-01-30T00:38:32;0.10;82.40
38514;DHT22;24282;48.400;10.808;2024-01-30T00:40:57;0.10;82.30
38514;DHT22;24282;48.400;10.808;2024-01-30T00:43:23;0.10;82.30
38514;DHT22;24282;48.400;10.808;2024-01-30T00:45:50;0.00;82.30
38514;DHT22;24282;48.400;10.808;2024-01-30T00:48:17;0.00;82.30
38514;DHT22;24282;48.400;10.808;2024-01-30T00:50:43;0.00;82.40
38514;DHT22;24282;48.400;10.808;2024-01-30T00:53:08;0.00;82.50
38514;DHT22;24282;48.400;10.808;2024-01-30T00:55:35;0.00;82.40
38514;DHT22;24282;48.400;10.808;2024-01-30T00:58:01;0.00;82.40
38514;DHT22;24282;48.400;10.808;2024-01-30T01:00:26;0.00;82.40
38514;DHT22;24282;48.400;10.808;2024-01-30T01:02:55;0.00;82.40
38514;DHT22;24282;48.400;10.808;2024-01-30T01:05:21;0.00;82.40
38514;DHT22;24282;48.400;10.808;2024-01-30T01:07:47;0.00;82.40
38514;DHT22;24282;48.400;10.808;2024-01-30T01:10:17;0.00;82.40
38514;DHT22;24282;48.400;10.808;2024-01-30T01:12:44;0.00;82.40
38514;DHT22;24282;48.400;10.808;2024-01-30T01:15:10;0.00;82.50
38514;DHT22;24282;48.400;10.808;2024-01-30T01:17:37;-3276.70;82.50
38514;DHT22;24282;48.400;10.808;2024-01-30T01:20:04;-3276.70;82.50
38514;DHT22;24282;48.400;10.808;2024-01-30T01:22:31;-3276.70;82.70
38514;DHT22;24282;48.400;10.808;2024-01-30T01:24:56;-3276.60;82.70
38514;DHT22;24282;48.400;10.808;2024-01-30T01:27:22;-3276.60;82.80
38514;DHT22;24282;48.400;10.808;2024-01-30T01:29:48;-3276.60;82.80
38514;DHT22;24282;48.400;10.808;2024-01-30T01:32:14;-3276.60;82.90
38514;DHT22;24282;48.400;10.808;2024-01-30T01:34:39;-3276.60;83.00
38514;DHT22;24282;48.400;10.808;2024-01-30T01:37:05;-3276.60;83.00
38514;DHT22;24282;48.400;10.808;2024-01-30T01:39:31;-3276.60;83.10
38514;DHT22;24282;48.400;10.808;2024-01-30T01:41:56;-3276.50;83.00
38514;DHT22;24282;48.400;10.808;2024-01-30T01:44:22;-3276.50;83.10
38514;DHT22;24282;48.400;10.808;2024-01-30T01:46:48;-3276.50;83.10
38514;DHT22;24282;48.400;10.808;2024-01-30T01:49:14;-3276.50;83.00
38514;DHT22;24282;48.400;10.808;2024-01-30T01:51:41;-3276.50;83.10
38514;DHT22;24282;48.400;10.808;2024-01-30T01:54:08;-3276.50;83.10
38514;DHT22;24282;48.400;10.808;2024-01-30T01:56:34;-3276.50;83.10
38514;DHT22;24282;48.400;10.808;2024-01-30T01:59:05;-3276.50;83.00
38514;DHT22;24282;48.400;10.808;2024-01-30T02:01:33;-3276.50;82.90
38514;DHT22;24282;48.400;10.808;2024-01-30T02:03:59;-3276.50;82.90
38514;DHT22;24282;48.400;10.808;2024-01-30T02:06:26;-3276.50;82.90
38514;DHT22;24282;48.400;10.808;2024-01-30T02:08:52;-3276.50;82.80
38514;DHT22;24282;48.400;10.808;2024-01-30T02:11:18;-3276.50;82.70
38514;DHT22;24282;48.400;10.808;2024-01-30T02:13:45;-3276.50;82.60
38514;DHT22;24282;48.400;10.808;2024-01-30T02:16:11;-3276.50;82.50
38514;DHT22;24282;48.400;10.808;2024-01-30T02:18:36;-3276.50;82.40
38514;DHT22;24282;48.400;10.808;2024-01-30T02:21:07;-3276.50;82.40
38514;DHT22;24282;48.400;10.808;2024-01-30T02:23:33;-3276.40;82.40
38514;DHT22;24282;48.400;10.808;2024-01-30T02:26:00;-3276.40;82.40
38514;DHT22;24282;48.400;10.808;2024-01-30T02:28:26;-3276.40;82.40
38514;DHT22;24282;48.400;10.808;2024-01-30T02:30:52;-3276.40;82.50
38514;DHT22;24282;48.400;10.808;2024-01-30T02:33:19;-3276.40;82.40
38514;DHT22;24282;48.400;10.808;2024-01-30T02:35:45;-3276.40;82.50
38514;DHT22;24282;48.400;10.808;2024-01-30T02:38:10;-3276.40;82.50
38514;DHT22;24282;48.400;10.808;2024-01-30T02:40:36;-3276.40;82.50
38514;DHT22;24282;48.400;10.808;2024-01-30T02:43:02;-3276.40;82.50
38514;DHT22;24282;48.400;10.808;2024-01-30T02:45:28;-3276.40;82.50
38514;DHT22;24282;48.400;10.808;2024-01-30T02:47:54;-3276.40;82.40
38514;DHT22;24282;48.400;10.808;2024-01-30T02:50:20;-3276.40;82.40
38514;DHT22;24282;48.400;10.808;2024-01-30T02:52:46;-3276.40;82.30
38514;DHT22;24282;48.400;10.808;2024-01-30T02:55:12;-3276.40;82.30
38514;DHT22;24282;48.400;10.808;2024-01-30T02:57:40;-3276.40;82.30
38514;DHT22;24282;48.400;10.808;2024-01-30T03:00:06;-3276.40;82.20
38514;DHT22;24282;48.400;10.808;2024-01-30T03:02:35;-3276.40;82.20
38514;DHT22;24282;48.400;10.808;2024-01-30T03:05:01;-3276.40;82.10
38514;DHT22;24282;48.400;10.808;2024-01-30T03:07:27;-3276.40;82.10
38514;DHT22;24282;48.400;10.808;2024-01-30T03:09:52;-3276.30;82.10
38514;DHT22;24282;48.400;10.808;2024-01-30T03:12:21;-3276.30;82.10
38514;DHT22;24282;48.400;10.808;2024-01-30T03:14:47;-3276.30;82.20
38514;DHT22;24282;48.400;10.808;2024-01-30T03:17:13;-3276.20;82.20
38514;DHT22;24282;48.400;10.808;2024-01-30T03:19:39;-3276.20;82.40
38514;DHT22;24282;48.400;10.808;2024-01-30T03:22:05;-3276.20;82.50
38514;DHT22;24282;48.400;10.808;2024-01-30T03:24:30;-3276.10;82.60
38514;DHT22;24282;48.400;10.808;2024-01-30T03:26:56;-3276.20;82.60
38514;DHT22;24282;48.400;10.808;2024-01-30T03:29:22;-3276.20;82.70
38514;DHT22;24282;48.400;10.808;2024-01-30T03:31:47;-3276.20;82.90
38514;DHT22;24282;48.400;10.808;2024-01-30T03:34:13;-3276.10;83.00
38514;DHT22;24282;48.400;10.808;2024-01-30T03:36:39;-3276.10;83.00
38514;DHT22;24282;48.400;10.808;2024-01-30T03:39:05;-3276.20;83.10
38514;DHT22;24282;48.400;10.808;2024-01-30T03:41:31;-3276.10;83.20
38514;DHT22;24282;48.400;10.808;2024-01-30T03:43:57;-3276.20;83.30
38514;DHT22;24282;48.400;10.808;2024-01-30T03:46:23;-3276.20;83.20
38514;DHT22;24282;48.400;10.808;2024-01-30T03:48:49;-3276.20;83.10
38514;DHT22;24282;48.400;10.808;2024-01-30T03:51:15;-3276.20;83.10
38514;DHT22;24282;48.400;10.808;2024-01-30T03:53:45;-3276.20;82.90
38514;DHT22;24282;48.400;10.808;2024-01-30T03:56:12;-3276.20;82.90
38514;DHT22;24282;48.400;10.808;2024-01-30T03:58:40;-3276.20;82.80
38514;DHT22;24282;48.400;10.808;2024-01-30T04:01:07;-3276.20;82.70
38514;DHT22;24282;48.400;10.808;2024-01-30T04:03:33;-3276.20;82.70
38514;DHT22;24282;48.400;10.808;2024-01-30T04:05:58;-3276.20;82.60
38514;DHT22;24282;48.400;10.808;2024-01-30T04:08:24;-3276.20;82.50
38514;DHT22;24282;48.400;10.808;2024-01-30T04:10:50;-3276.10;82.60
38514;DHT22;24282;48.400;10.808;2024-01-30T04:13:16;-3276.10;82.60
38514;DHT22;24282;48.400;10.808;2024-01-30T04:15:41;-3276.20;82.60
38514;DHT22;24282;48.400;10.808;2024-01-30T04:18:07;-3276.10;82.50
38514;DHT22;24282;48.400;10.808;2024-01-30T04:20:33;-3276.10;82.50
38514;DHT22;24282;48.400;10.808;2024-01-30T04:22:59;-3276.10;82.50
38514;DHT22;24282;48.400;10.808;2024-01-30T04:25:24;-3276.10;82.60
38514;DHT22;24282;48.400;10.808;2024-01-30T04:27:50;-3276.10;82.50
38514;DHT22;24282;48.400;10.808;2024-01-30T04:30:16;-3276.10;82.50
38514;DHT22;24282;48.400;10.808;2024-01-30T04:32:42;-3276.10;82.40
38514;DHT22;24282;48.400;10.808;2024-01-30T04:35:08;-3276.10;82.50
38514;DHT22;24282;48.400;10.808;2024-01-30T04:37:33;-3276.10;82.40
38514;DHT22;24282;48.400;10.808;2024-01-30T04:39:59;-3276.10;82.50
38514;DHT22;24282;48.400;10.808;2024-01-30T04:42:25;-3276.10;82.70
38514;DHT22;24282;48.400;10.808;2024-01-30T04:44:51;-3276.00;82.80
38514;DHT22;24282;48.400;10.808;2024-01-30T04:47:16;-3276.10;82.90
38514;DHT22;24282;48.400;10.808;2024-01-30T04:49:42;-3276.00;82.90
38514;DHT22;24282;48.400;10.808;2024-01-30T04:52:08;-3276.10;82.80
38514;DHT22;24282;48.400;10.808;2024-01-30T04:54:35;-3276.10;82.90
38514;DHT22;24282;48.400;10.808;2024-01-30T04:57:03;-3276.10;82.80
38514;DHT22;24282;48.400;10.808;2024-01-30T04:59:31;-3276.10;82.70
38514;DHT22;24282;48.400;10.808;2024-01-30T05:01:56;-3276.10;82.60
38514;DHT22;24282;48.400;10.808;2024-01-30T05:04:22;-3276.10;82.50
38514;DHT22;24282;48.400;10.808;2024-01-30T05:06:51;-3276.10;82.50
38514;DHT22;24282;48.400;10.808;2024-01-30T05:09:16;-3276.10;82.50
38514;DHT22;24282;48.400;10.808;2024-01-30T05:11:42;-3276.00;82.60
38514;DHT22;24282;48.400;10.808;2024-01-30T05:14:08;-3276.10;82.70
38514;DHT22;24282;48.400;10.808;2024-01-30T05:16:37;-3276.00;82.80
38514;DHT22;24282;48.400;10.808;2024-01-30T05:19:03;-3276.00;82.90
38514;DHT22;24282;48.400;10.808;2024-01-30T05:21:29;-3276.00;82.90
38514;DHT22;24282;48.400;10.808;2024-01-30T05:23:54;-3276.00;82.90
38514;DHT22;24282;48.400;10.808;2024-01-30T05:26:20;-3276.00;83.00
38514;DHT22;24282;48.400;10.808;2024-01-30T05:28:48;-3276.00;83.20
38514;DHT22;24282;48.400;10.808;2024-01-30T05:31:14;-3276.00;83.20
38514;DHT22;24282;48.400;10.808;2024-01-30T05:33:40;-3276.00;83.30
38514;DHT22;24282;48.400;10.808;2024-01-30T05:36:06;-3276.00;83.30
38514;DHT22;24282;48.400;10.808;2024-01-30T05:38:32;-3276.00;83.30
38514;DHT22;24282;48.400;10.808;2024-01-30T05:40:58;-3276.00;83.20
38514;DHT22;24282;48.400;10.808;2024-01-30T05:43:24;-3276.00;83.10
38514;DHT22;24282;48.400;10.808;2024-01-30T05:45:51;-3276.00;83.00
38514;DHT22;24282;48.400;10.808;2024-01-30T05:48:17;-3276.00;82.90
38514;DHT22;24282;48.400;10.808;2024-01-30T05:50:42;-3276.00;82.70
38514;DHT22;24282;48.400;10.808;2024-01-30T05:53:08;-3276.00;82.50
38514;DHT22;24282;48.400;10.808;2024-01-30T05:55:34;-3276.00;82.60
38514;DHT22;24282;48.400;10.808;2024-01-30T05:58:00;-3275.90;82.60
38514;DHT22;24282;48.400;10.808;2024-01-30T06:00:25;-3275.90;82.70
38514;DHT22;24282;48.400;10.808;2024-01-30T06:02:51;-3275.90;82.60
38514;DHT22;24282;48.400;10.808;2024-01-30T06:05:17;-3275.90;82.50
38514;DHT22;24282;48.400;10.808;2024-01-30T06:07:42;-3275.90;82.60
38514;DHT22;24282;48.400;10.808;2024-01-30T06:10:08;-3275.90;82.60
38514;DHT22;24282;48.400;10.808;2024-01-30T06:12:37;-3275.90;82.60
38514;DHT22;24282;48.400;10.808;2024-01-30T06:15:04;-3275.90;82.60
38514;DHT22;24282;48.400;10.808;2024-01-30T06:17:30;-3275.90;82.60
38514;DHT22;24282;48.400;10.808;2024-01-30T06:19:55;-3275.90;82.70
38514;DHT22;24282;48.400;10.808;2024-01-30T06:22:21;-3275.90;82.70
38514;DHT22;24282;48.400;10.808;2024-01-30T06:24:47;-3275.80;82.70
38514;DHT22;24282;48.400;10.808;2024-01-30T06:27:16;-3275.80;82.80
38514;DHT22;24282;48.400;10.808;2024-01-30T06:29:43;-3275.80;82.90
38514;DHT22;24282;48.400;10.808;2024-01-30T06:32:08;-3275.80;82.90
38514;DHT22;24282;48.400;10.808;2024-01-30T06:34:34;-3275.80;82.90
38514;DHT22;24282;48.400;10.808;2024-01-30T06:37:00;-3275.70;82.90
38514;DHT22;24282;48.400;10.808;2024-01-30T06:39:26;-3275.70;83.00
38514;DHT22;24282;48.400;10.808;2024-01-30T06:41:52;-3275.70;83.00
38514;DHT22;24282;48.400;10.808;2024-01-30T06:44:18;-3275.70;82.90
38514;DHT22;24282;48.400;10.808;2024-01-30T06:46:43;-3275.70;83.00
38514;DHT22;24282;48.400;10.808;2024-01-30T06:49:09;-3275.70;83.00
38514;DHT22;24282;48.400;10.808;2024-01-30T06:51:35;-3275.70;83.00
38514;DHT22;24282;48.400;10.808;2024-01-30T06:54:01;-3275.70;83.10
38514;DHT22;24282;48.400;10.808;2024-01-30T06:56:26;-3275.70;83.20
38514;DHT22;24282;48.400;10.808;2024-01-30T06:58:52;-3275.70;83.20
38514;DHT22;24282;48.400;10.808;2024-01-30T07:01:18;-3275.70;83.20
38514;DHT22;24282;48.400;10.808;2024-01-30T07:03:43;-3275.80;83.20
38514;DHT22;24282;48.400;10.808;2024-01-30T07:06:10;-3275.80;83.10
38514;DHT22;24282;48.400;10.808;2024-01-30T07:08:39;-3275.70;83.10
38514;DHT22;24282;48.400;10.808;2024-01-30T07:11:05;-3275.80;83.00
38514;DHT22;24282;48.400;10.808;2024-01-30T07:13:32;-3275.80;82.90
38514;DHT22;24282;48.400;10.808;2024-01-30T07:15:57;-3275.80;82.80
38514;DHT22;24282;48.400;10.808;2024-01-30T07:18:23;-3275.80;82.70
38514;DHT22;24282;48.400;10.808;2024-01-30T07:20:49;-3275.80;82.60
38514;DHT22;24282;48.400;10.808;2024-01-30T07:23:16;-3275.80;82.60
38514;DHT22;24282;48.400;10.808;2024-01-30T07:25:46;-3275.80;82.60
38514;DHT22;24282;48.400;10.808;2024-01-30T07:28:14;-3275.80;82.70
38514;DHT22;24282;48.400;10.808;2024-01-30T07:30:42;-3275.80;82.80
38514;DHT22;24282;48.400;10.808;2024-01-30T07:33:08;-3275.80;82.90
38514;DHT22;24282;48.400;10.808;2024-01-30T07:35:35;-3275.80;83.10
38514;DHT22;24282;48.400;10.808;2024-01-30T07:38:01;-3275.80;83.20
38514;DHT22;24282;48.400;10.808;2024-01-30T07:40:27;-3275.80;83.30
38514;DHT22;24282;48.400;10.808;2024-01-30T07:42:53;-3275.80;83.50
38514;DHT22;24282;48.400;10.808;2024-01-30T07:45:19;-3275.80;83.50
38514;DHT22;24282;48.400;10.808;2024-01-30T07:47:50;-3275.80;83.60
38514;DHT22;24282;48.400;10.808;2024-01-30T07:50:16;-3275.90;83.80
38514;DHT22;24282;48.400;10.808;2024-01-30T07:52:43;-3275.90;84.00
38514;DHT22;24282;48.400;10.808;2024-01-30T07:55:08;-3275.90;84.10
38514;DHT22;24282;48.400;10.808;2024-01-30T07:57:34;-3275.90;84.10
38514;DHT22;24282;48.400;10.808;2024-01-30T08:00:01;-3275.90;84.30
38514;DHT22;24282;48.400;10.808;2024-01-30T08:02:32;-3276.00;84.40
38514;DHT22;24282;48.400;10.808;2024-01-30T08:04:58;-3276.00;84.50
38514;DHT22;24282;48.400;10.808;2024-01-30T08:07:24;-3276.10;84.50
38514;DHT22;24282;48.400;10.808;2024-01-30T08:09:50;-3276.10;84.60
38514;DHT22;24282;48.400;10.808;2024-01-30T08:12:15;-3276.20;84.60
38514;DHT22;24282;48.400;10.808;2024-01-30T08:14:41;-3276.20;84.60
38514;DHT22;24282;48.400;10.808;2024-01-30T08:17:09;-3276.20;84.70
38514;DHT22;24282;48.400;10.808;2024-01-30T08:19:35;-3276.30;84.80
38514;DHT22;24282;48.400;10.808;2024-01-30T08:22:01;-3276.30;85.00
38514;DHT22;24282;48.400;10.808;2024-01-30T08:24:26;-3276.40;85.10
38514;DHT22;24282;48.400;10.808;2024-01-30T08:26:52;-3276.40;85.20
38514;DHT22;24282;48.400;10.808;2024-01-30T08:29:18;-3276.40;85.30
38514;DHT22;24282;48.400;10.808;2024-01-30T08:31:44;-3276.50;85.30
38514;DHT22;24282;48.400;10.808;2024-01-30T08:34:11;-3276.50;85.30
38514;DHT22;24282;48.400;10.808;2024-01-30T08:36:36;-3276.60;85.50
38514;DHT22;24282;48.400;10.808;2024-01-30T08:39:02;-3276.60;85.60
38514;DHT22;24282;48.400;10.808;2024-01-30T08:41:28;-3276.70;85.60
38514;DHT22;24282;48.400;10.808;2024-01-30T08:43:54;-3276.70;85.60
38514;DHT22;24282;48.400;10.808;2024-01-30T08:46:20;0.00;85.50
38514;DHT22;24282;48.400;10.808;2024-01-30T08:48:46;0.00;85.50
38514;DHT22;24282;48.400;10.808;2024-01-30T08:51:12;0.10;85.50
38514;DHT22;24282;48.400;10.808;2024-01-30T08:53:37;0.30;85.40
38514;DHT22;24282;48.400;10.808;2024-01-30T08:56:04;0.40;85.20
38514;DHT22;24282;48.400;10.808;2024-01-30T08:58:30;0.50;85.00
38514;DHT22;24282;48.400;10.808;2024-01-30T09:00:56;0.60;84.90
38514;DHT22;24282;48.400;10.808;2024-01-30T09:03:21;0.70;84.80
38514;DHT22;24282;48.400;10.808;2024-01-30T09:05:47;0.70;84.80
38514;DHT22;24282;48.400;10.808;2024-01-30T09:08:13;0.80;84.80
38514;DHT22;24282;48.400;10.808;2024-01-30T09:10:39;0.90;84.90
38514;DHT22;24282;48.400;10.808;2024-01-30T09:13:04;0.90;85.00
38514;DHT22;24282;48.400;10.808;2024-01-30T09:15:30;1.00;84.90
38514;DHT22;24282;48.400;10.808;2024-01-30T09:17:56;1.00;84.90
38514;DHT22;24282;48.400;10.808;2024-01-30T09:20:21;1.10;84.70
38514;DHT22;24282;48.400;10.808;2024-01-30T09:22:48;1.10;84.70
38514;DHT22;24282;48.400;10.808;2024-01-30T09:25:15;1.20;84.70
38514;DHT22;24282;48.400;10.808;2024-01-30T09:27:40;1.20;84.70
38514;DHT22;24282;48.400;10.808;2024-01-30T09:30:06;1.20;85.10
38514;DHT22;24282;48.400;10.808;2024-01-30T09:32:33;1.30;85.50
38514;DHT22;24282;48.400;10.808;2024-01-30T09:34:59;1.30;85.60
38514;DHT22;24282;48.400;10.808;2024-01-30T09:37:25;1.40;85.60
38514;DHT22;24282;48.400;10.808;2024-01-30T09:39:50;1.40;85.60
38514;DHT22;24282;48.400;10.808;2024-01-30T09:42:34;1.50;86.00
38514;DHT22;24282;48.400;10.808;2024-01-30T09:45:04;1.60;85.90
38514;DHT22;24282;48.400;10.808;2024-01-30T09:47:41;1.70;85.70
38514;DHT22;24282;48.400;10.808;2024-01-30T09:50:09;1.90;85.40
38514;DHT22;24282;48.400;10.808;2024-01-30T09:52:35;1.90;85.10
38514;DHT22;24282;48.400;10.808;2024-01-30T09:55:01;2.10;85.30
38514;DHT22;24282;48.400;10.808;2024-01-30T09:57:27;2.20;85.30
38514;DHT22;24282;48.400;10.808;2024-01-30T09:59:53;2.30;85.20
38514;DHT22;24282;48.400;10.808;2024-01-30T10:02:22;2.40;84.80
38514;DHT22;24282;48.400;10.808;2024-01-30T10:04:49;2.50;84.40
38514;DHT22;24282;48.400;10.808;2024-01-30T10:07:16;2.60;84.50
38514;DHT22;24282;48.400;10.808;2024-01-30T10:09:42;2.80;84.30
38514;DHT22;24282;48.400;10.808;2024-01-30T10:12:09;2.90;82.50
38514;DHT22;24282;48.400;10.808;2024-01-30T10:17:26;3.20;81.90
38514;DHT22;24282;48.400;10.808;2024-01-30T10:19:52;3.30;81.90
38514;DHT22;24282;48.400;10.808;2024-01-30T10:22:18;3.30;82.10
38514;DHT22;24282;48.400;10.808;2024-01-30T10:24:45;3.40;81.60
38514;DHT22;24282;48.400;10.808;2024-01-30T10:27:11;3.50;81.50
38514;DHT22;24282;48.400;10.808;2024-01-30T10:29:37;3.60;81.30
38514;DHT22;24282;48.400;10.808;2024-01-30T10:32:04;3.60;81.60
38514;DHT22;24282;48.400;10.808;2024-01-30T10:34:32;3.70;81.10
38514;DHT22;24282;48.400;10.808;2024-01-30T10:37:18;3.80;80.90
38514;DHT22;24282;48.400;10.808;2024-01-30T10:39:45;3.90;79.70
38514;DHT22;24282;48.400;10.808;2024-01-30T10:42:12;4.00;79.20
38514;DHT22;24282;48.400;10.808;2024-01-30T10:47:27;4.20;79.30
38514;DHT22;24282;48.400;10.808;2024-01-30T10:49:54;4.40;78.60
38514;DHT22;24282;48.400;10.808;2024-01-30T10:52:23;4.50;78.10
38514;DHT22;24282;48.400;10.808;2024-01-30T10:54:51;4.60;78.10
38514;DHT22;24282;48.400;10.808;2024-01-30T10:57:18;4.70;77.70
38514;DHT22;24282;48.400;10.808;2024-01-30T10:59:44;4.90;77.70
38514;DHT22;24282;48.400;10.808;2024-01-30T11:02:11;5.00;76.60
38514;DHT22;24282;48.400;10.808;2024-01-30T11:04:37;5.10;76.40
38514;DHT22;24282;48.400;10.808;2024-01-30T11:07:25;5.30;75.10
38514;DHT22;24282;48.400;10.808;2024-01-30T11:12:24;5.50;75.60
38514;DHT22;24282;48.400;10.808;2024-01-30T11:15:04;5.60;75.20
38514;DHT22;24282;48.400;10.808;2024-01-30T11:17:43;5.70;75.20
38514;DHT22;24282;48.400;10.808;2024-01-30T11:20:11;5.70;75.60
38514;DHT22;24282;48.400;10.808;2024-01-30T11:22:37;5.90;75.80
38514;DHT22;24282;48.400;10.808;2024-01-30T11:25:03;6.00;75.80
38514;DHT22;24282;48.400;10.808;2024-01-30T11:27:30;6.00;75.80
38514;DHT22;24282;48.400;10.808;2024-01-30T11:30:03;6.20;75.30
38514;DHT22;24282;48.400;10.808;2024-01-30T11:32:29;6.20;74.70
38514;DHT22;24282;48.400;10.808;2024-01-30T11:34:55;6.20;74.50
38514;DHT22;24282;48.400;10.808;2024-01-30T11:37:21;6.30;74.20
38514;DHT22;24282;48.400;10.808;2024-01-30T11:39:51;6.30;74.40
38514;DHT22;24282;48.400;10.808;2024-01-30T11:42:18;6.40;73.10
38514;DHT22;24282;48.400;10.808;2024-01-30T11:44:48;6.50;73.60
38514;DHT22;24282;48.400;10.808;2024-01-30T11:47:14;6.50;73.90
38514;DHT22;24282;48.400;10.808;2024-01-30T11:49:40;6.50;74.50
38514;DHT22;24282;48.400;10.808;2024-01-30T11:52:06;6.50;74.40
38514;DHT22;24282;48.400;10.808;2024-01-30T11:54:32;6.50;74.30
38514;DHT22;24282;48.400;10.808;2024-01-30T11:56:57;6.50;74.50
38514;DHT22;24282;48.400;10.808;2024-01-30T11:59:24;6.60;74.70
38514;DHT22;24282;48.400;10.808;2024-01-30T12:01:52;6.60;75.00
38514;DHT22;24282;48.400;10.808;2024-01-30T12:04:17;6.70;75.30
38514;DHT22;24282;48.400;10.808;2024-01-30T12:06:43;6.70;75.70
38514;DHT22;24282;48.400;10.808;2024-01-30T12:09:09;6.80;75.30
38514;DHT22;24282;48.400;10.808;2024-01-30T12:11:49;6.90;75.40
38514;DHT22;24282;48.400;10.808;2024-01-30T12:14:16;7.00;75.10
38514;DHT22;24282;48.400;10.808;2024-01-30T12:16:42;7.00;74.30
38514;DHT22;24282;48.400;10.808;2024-01-30T12:19:08;7.10;74.60
38514;DHT22;24282;48.400;10.808;2024-01-30T12:21:34;7.20;73.80
38514;DHT22;24282;48.400;10.808;2024-01-30T12:24:00;7.30;72.90
38514;DHT22;24282;48.400;10.808;2024-01-30T12:26:26;7.40;73.10
38514;DHT22;24282;48.400;10.808;2024-01-30T12:28:56;7.40;72.90
38514;DHT22;24282;48.400;10.808;2024-01-30T12:31:27;7.50;72.10
38514;DHT22;24282;48.400;10.808;2024-01-30T12:33:53;7.50;71.60
38514;DHT22;24282;48.400;10.808;2024-01-30T12:36:19;7.60;71.20
38514;DHT22;24282;48.400;10.808;2024-01-30T12:38:46;7.60;71.50
38514;DHT22;24282;48.400;10.808;2024-01-30T12:41:12;7.60;71.20
38514;DHT22;24282;48.400;10.808;2024-01-30T12:43:37;7.60;71.30
38514;DHT22;24282;48.400;10.808;2024-01-30T12:46:03;7.70;71.60
38514;DHT22;24282;48.400;10.808;2024-01-30T12:48:29;7.70;72.00
38514;DHT22;24282;48.400;10.808;2024-01-30T12:50:56;7.70;73.00
38514;DHT22;24282;48.400;10.808;2024-01-30T12:53:22;7.70;72.80
38514;DHT22;24282;48.400;10.808;2024-01-30T12:55:47;7.80;74.10
38514;DHT22;24282;48.400;10.808;2024-01-30T12:58:15;7.80;74.00
38514;DHT22;24282;48.400;10.808;2024-01-30T13:00:41;7.90;73.70
38514;DHT22;24282;48.400;10.808;2024-01-30T13:03:10;7.90;73.10
38514;DHT22;24282;48.400;10.808;2024-01-30T13:05:37;7.90;73.60
38514;DHT22;24282;48.400;10.808;2024-01-30T13:08:03;8.00;74.30
38514;DHT22;24282;48.400;10.808;2024-01-30T13:10:29;8.00;74.60
38514;DHT22;24282;48.400;10.808;2024-01-30T13:12:54;8.10;75.30
38514;DHT22;24282;48.400;10.808;2024-01-30T13:15:20;8.20;75.50
38514;DHT22;24282;48.400;10.808;2024-01-30T13:17:48;8.40;75.50
38514;DHT22;24282;48.400;10.808;2024-01-30T13:20:14;8.40;74.80
38514;DHT22;24282;48.400;10.808;2024-01-30T13:22:45;8.50;73.80
38514;DHT22;24282;48.400;10.808;2024-01-30T13:25:11;8.50;74.20
38514;DHT22;24282;48.400;10.808;2024-01-30T13:27:37;8.50;74.30
38514;DHT22;24282;48.400;10.808;2024-01-30T13:30:03;8.60;74.10
38514;DHT22;24282;48.400;10.808;2024-01-30T13:32:29;8.70;73.70
38514;DHT22;24282;48.400;10.808;2024-01-30T13:34:55;8.70;73.50
38514;DHT22;24282;48.400;10.808;2024-01-30T13:37:22;8.80;73.30
38514;DHT22;24282;48.400;10.808;2024-01-30T13:39:48;8.80;72.90
38514;DHT22;24282;48.400;10.808;2024-01-30T13:42:13;8.80;72.80
38514;DHT22;24282;48.400;10.808;2024-01-30T13:44:39;8.80;72.40
38514;DHT22;24282;48.400;10.808;2024-01-30T13:47:05;8.80;71.80
38514;DHT22;24282;48.400;10.808;2024-01-30T13:49:31;8.70;71.80
38514;DHT22;24282;48.400;10.808;2024-01-30T13:51:56;8.70;71.90
38514;DHT22;24282;48.400;10.808;2024-01-30T13:54:23;8.70;71.90
38514;DHT22;24282;48.400;10.808;2024-01-30T13:56:49;8.70;72.30
38514;DHT22;24282;48.400;10.808;2024-01-30T13:59:15;8.60;72.40
38514;DHT22;24282;48.400;10.808;2024-01-30T14:01:40;8.60;71.70
38514;DHT22;24282;48.400;10.808;2024-01-30T14:04:06;8.70;70.70
38514;DHT22;24282;48.400;10.808;2024-01-30T14:06:32;8.70;70.40
38514;DHT22;24282;48.400;10.808;2024-01-30T14:08:58;8.70;70.20
38514;DHT22;24282;48.400;10.808;2024-01-30T14:11:23;8.80;69.00
38514;DHT22;24282;48.400;10.808;2024-01-30T14:13:50;8.80;69.20
38514;DHT22;24282;48.400;10.808;2024-01-30T14:16:16;8.80;69.30
38514;DHT22;24282;48.400;10.808;2024-01-30T14:18:41;8.80;68.90
38514;DHT22;24282;48.400;10.808;2024-01-30T14:21:07;8.80;70.00
38514;DHT22;24282;48.400;10.808;2024-01-30T14:23:33;8.80;71.70
38514;DHT22;24282;48.400;10.808;2024-01-30T14:25:59;8.80;72.70
38514;DHT22;24282;48.400;10.808;2024-01-30T14:28:25;8.70;73.10
38514;DHT22;24282;48.400;10.808;2024-01-30T14:30:51;8.60;73.90
38514;DHT22;24282;48.400;10.808;2024-01-30T14:33:17;8.50;73.20
38514;DHT22;24282;48.400;10.808;2024-01-30T14:35:42;8.50;72.80
38514;DHT22;24282;48.400;10.808;2024-01-30T14:38:08;8.50;72.90
38514;DHT22;24282;48.400;10.808;2024-01-30T14:40:35;8.50;72.80
38514;DHT22;24282;48.400;10.808;2024-01-30T14:43:00;8.50;72.90
38514;DHT22;24282;48.400;10.808;2024-01-30T14:45:26;8.50;74.40
38514;DHT22;24282;48.400;10.808;2024-01-30T14:47:52;8.40;74.40
38514;DHT22;24282;48.400;10.808;2024-01-30T14:50:18;8.50;74.80
38514;DHT22;24282;48.400;10.808;2024-01-30T14:52:44;8.40;75.30
38514;DHT22;24282;48.400;10.808;2024-01-30T14:55:10;8.30;75.70
38514;DHT22;24282;48.400;10.808;2024-01-30T14:57:36;8.20;76.50
38514;DHT22;24282;48.400;10.808;2024-01-30T15:00:04;8.10;77.10
38514;DHT22;24282;48.400;10.808;2024-01-30T15:02:31;8.10;77.20
38514;DHT22;24282;48.400;10.808;2024-01-30T15:04:57;8.00;77.20
38514;DHT22;24282;48.400;10.808;2024-01-30T15:07:22;7.90;77.20